sensor_id;sensor_type;location;lat;lon;timestamp;temperature;humidity
45115;DHT22;30877;43.706;10.780;2023-08-01T00:00:04;25.60;96.70
45115;DHT22;30877;43.706;10.780;2023-08-01T00:02:38;25.50;96.70
45115;DHT22;30877;43.706;10.780;2023-08-01T00:05:07;25.20;96.70
45115;DHT22;30877;43.706;10.780;2023-08-01T00:07:36;25.10;96.70
45115;DHT22;30877;43.706;10.780;2023-08-01T00:10:05;25.00;96.70
45115;DHT22;30877;43.706;10.780;2023-08-01T00:12:33;25.00;96.70
45115;DHT22;30877;43.706;10.780;2023-08-01T00:15:02;24.90;96.70
45115;DHT22;30877;43.706;10.780;2023-08-01T00:17:30;24.90;96.70
45115;DHT22;30877;43.706;10.780;2023-08-01T00:19:58;24.90;96.70
45115;DHT22;30877;43.706;10.780;2023-08-01T00:22:26;25.10;96.70
45115;DHT22;30877;43.706;10.780;2023-08-01T00:24:55;25.30;96.70
45115;DHT22;30877;43.706;10.780;2023-08-01T00:27:24;25.50;96.70
45115;DHT22;30877;43.706;10.780;2023-08-01T00:29:52;25.40;96.70
45115;DHT22;30877;43.706;10.780;2023-08-01T00:32:20;25.30;96.70
45115;DHT22;30877;43.706;10.780;2023-08-01T00:34:50;25.40;96.70
45115;DHT22;30877;43.706;10.780;2023-08-01T00:37:19;25.30;96.70
45115;DHT22;30877;43.706;10.780;2023-08-01T00:39:47;25.30;96.70
45115;DHT22;30877;43.706;10.780;2023-08-01T00:42:17;25.30;96.70
45115;DHT22;30877;43.706;10.780;2023-08-01T00:44:45;25.40;96.70
45115;DHT22;30877;43.706;10.780;2023-08-01T00:47:15;25.30;96.70
45115;DHT22;30877;43.706;10.780;2023-08-01T00:49:43;25.30;96.70
45115;DHT22;30877;43.706;10.780;2023-08-01T00:52:11;25.20;96.70
45115;DHT22;30877;43.706;10.780;2023-08-01T00:54:40;25.20;96.70
45115;DHT22;30877;43.706;10.780;2023-08-01T00:57:08;25.20;96.70
45115;DHT22;30877;43.706;10.780;2023-08-01T00:59:40;25.30;96.70
45115;DHT22;30877;43.706;10.780;2023-08-01T01:02:08;25.30;96.70
45115;DHT22;30877;43.706;10.780;2023-08-01T01:04:36;25.10;96.70
45115;DHT22;30877;43.706;10.780;2023-08-01T01:07:06;25.20;96.70
45115;DHT22;30877;43.706;10.780;2023-08-01T01:09:35;25.20;96.70
45115;DHT22;30877;43.706;10.780;2023-08-01T01:12:03;25.00;96.70
45115;DHT22;30877;43.706;10.780;2023-08-01T01:14:32;24.80;96.70
45115;DHT22;30877;43.706;10.780;2023-08-01T01:17:01;24.80;96.70
45115;DHT22;30877;43.706;10.780;2023-08-01T01:19:29;24.70;96.70
45115;DHT22;30877;43.706;10.780;2023-08-01T01:22:24;24.60;96.70
45115;DHT22;30877;43.706;10.780;2023-08-01T01:24:54;24.60;96.70
45115;DHT22;30877;43.706;10.780;2023-08-01T01:27:23;24.70;96.70
45115;DHT22;30877;43.706;10.780;2023-08-01T01:29:52;24.80;96.70
45115;DHT22;30877;43.706;10.780;2023-08-01T01:32:42;24.80;96.70
45115;DHT22;30877;43.706;10.780;2023-08-01T01:35:11;24.80;96.70
45115;DHT22;30877;43.706;10.780;2023-08-01T01:37:41;24.80;96.70
45115;DHT22;30877;43.706;10.780;2023-08-01T01:40:10;24.80;96.70
45115;DHT22;30877;43.706;10.780;2023-08-01T01:42:38;24.70;96.70
45115;DHT22;30877;43.706;10.780;2023-08-01T01:45:07;24.70;96.70
45115;DHT22;30877;43.706;10.780;2023-08-01T01:47:35;24.70;96.70
45115;DHT22;30877;43.706;10.780;2023-08-01T01:50:03;24.70;96.70
45115;DHT22;30877;43.706;10.780;2023-08-01T01:52:33;24.70;96.70
45115;DHT22;30877;43.706;10.780;2023-08-01T01:55:03;24.90;96.70
45115;DHT22;30877;43.706;10.780;2023-08-01T01:57:32;24.90;96.70
45115;DHT22;30877;43.706;10.780;2023-08-01T02:00:00;25.00;96.70
45115;DHT22;30877;43.706;10.780;2023-08-01T02:02:39;25.00;96.70
45115;DHT22;30877;43.706;10.780;2023-08-01T02:05:07;25.00;96.70
45115;DHT22;30877;43.706;10.780;2023-08-01T02:07:35;25.10;96.70
45115;DHT22;30877;43.706;10.780;2023-08-01T02:10:06;25.20;96.70
45115;DHT22;30877;43.706;10.780;2023-08-01T02:12:34;25.20;96.70
45115;DHT22;30877;43.706;10.780;2023-08-01T02:15:05;25.20;96.70
45115;DHT22;30877;43.706;10.780;2023-08-01T02:17:33;25.30;96.70
45115;DHT22;30877;43.706;10.780;2023-08-01T02:20:01;25.30;96.70
45115;DHT22;30877;43.706;10.780;2023-08-01T02:22:31;25.30;96.70
45115;DHT22;30877;43.706;10.780;2023-08-01T02:25:07;25.30;96.70
45115;DHT22;30877;43.706;10.780;2023-08-01T02:27:36;25.30;96.70
45115;DHT22;30877;43.706;10.780;2023-08-01T02:30:06;25.20;96.70
45115;DHT22;30877;43.706;10.780;2023-08-01T02:32:35;25.20;96.70
45115;DHT22;30877;43.706;10.780;2023-08-01T02:35:05;25.20;96.70
45115;DHT22;30877;43.706;10.780;2023-08-01T02:37:34;25.30;96.70
45115;DHT22;30877;43.706;10.780;2023-08-01T02:40:07;25.30;96.70
45115;DHT22;30877;43.706;10.780;2023-08-01T02:42:37;25.30;96.70
45115;DHT22;30877;43.706;10.780;2023-08-01T02:45:06;25.20;96.70
45115;DHT22;30877;43.706;10.780;2023-08-01T02:47:36;25.20;96.70
45115;DHT22;30877;43.706;10.780;2023-08-01T02:50:05;25.20;96.70
45115;DHT22;30877;43.706;10.780;2023-08-01T02:52:35;25.10;96.70
45115;DHT22;30877;43.706;10.780;2023-08-01T02:55:04;25.00;96.70
45115;DHT22;30877;43.706;10.780;2023-08-01T02:57:35;25.00;96.70
45115;DHT22;30877;43.706;10.780;2023-08-01T03:00:05;25.00;96.70
45115;DHT22;30877;43.706;10.780;2023-08-01T03:02:35;25.00;96.70
45115;DHT22;30877;43.706;10.780;2023-08-01T03:05:05;24.90;96.70
45115;DHT22;30877;43.706;10.780;2023-08-01T03:07:34;25.00;96.70
45115;DHT22;30877;43.706;10.780;2023-08-01T03:10:03;25.00;96.70
45115;DHT22;30877;43.706;10.780;2023-08-01T03:12:34;25.10;96.70
45115;DHT22;30877;43.706;10.780;2023-08-01T03:15:04;25.00;96.70
45115;DHT22;30877;43.706;10.780;2023-08-01T03:17:33;25.00;96.70
45115;DHT22;30877;43.706;10.780;2023-08-01T03:20:02;24.90;96.70
45115;DHT22;30877;43.706;10.780;2023-08-01T03:22:38;24.90;96.70
45115;DHT22;30877;43.706;10.780;2023-08-01T03:25:08;24.90;96.70
45115;DHT22;30877;43.706;10.780;2023-08-01T03:27:38;24.80;96.70
45115;DHT22;30877;43.706;10.780;2023-08-01T03:30:08;24.80;96.70
45115;DHT22;30877;43.706;10.780;2023-08-01T03:32:37;24.80;96.70
45115;DHT22;30877;43.706;10.780;2023-08-01T03:35:07;24.90;96.70
45115;DHT22;30877;43.706;10.780;2023-08-01T03:37:36;24.90;96.70
45115;DHT22;30877;43.706;10.780;2023-08-01T03:40:06;25.00;96.70
45115;DHT22;30877;43.706;10.780;2023-08-01T03:42:40;24.90;96.70
45115;DHT22;30877;43.706;10.780;2023-08-01T03:45:10;24.90;96.70
45115;DHT22;30877;43.706;10.780;2023-08-01T03:47:39;24.80;96.70
45115;DHT22;30877;43.706;10.780;2023-08-01T03:50:09;24.80;96.70
45115;DHT22;30877;43.706;10.780;2023-08-01T03:52:38;24.70;96.70
45115;DHT22;30877;43.706;10.780;2023-08-01T03:55:09;24.70;96.70
45115;DHT22;30877;43.706;10.780;2023-08-01T03:57:40;24.70;96.70
45115;DHT22;30877;43.706;10.780;2023-08-01T04:00:22;24.60;96.70
45115;DHT22;30877;43.706;10.780;2023-08-01T04:02:51;24.60;96.70
45115;DHT22;30877;43.706;10.780;2023-08-01T04:05:21;24.60;96.70
45115;DHT22;30877;43.706;10.780;2023-08-01T04:07:50;24.60;96.70
45115;DHT22;30877;43.706;10.780;2023-08-01T04:10:19;24.60;96.70
45115;DHT22;30877;43.706;10.780;2023-08-01T04:12:50;24.60;96.70
45115;DHT22;30877;43.706;10.780;2023-08-01T04:15:19;24.60;96.70
45115;DHT22;30877;43.706;10.780;2023-08-01T04:17:48;24.50;96.70
45115;DHT22;30877;43.706;10.780;2023-08-01T04:20:18;24.60;96.70
45115;DHT22;30877;43.706;10.780;2023-08-01T04:22:46;24.50;96.70
45115;DHT22;30877;43.706;10.780;2023-08-01T04:25:15;24.50;96.70
45115;DHT22;30877;43.706;10.780;2023-08-01T04:27:43;24.50;96.70
45115;DHT22;30877;43.706;10.780;2023-08-01T04:30:12;24.50;96.70
45115;DHT22;30877;43.706;10.780;2023-08-01T04:32:41;24.60;96.70
45115;DHT22;30877;43.706;10.780;2023-08-01T04:35:09;24.60;96.70
45115;DHT22;30877;43.706;10.780;2023-08-01T04:37:37;24.60;96.70
45115;DHT22;30877;43.706;10.780;2023-08-01T04:40:07;24.60;96.70
45115;DHT22;30877;43.706;10.780;2023-08-01T04:42:35;24.60;96.70
45115;DHT22;30877;43.706;10.780;2023-08-01T04:45:04;24.60;96.70
45115;DHT22;30877;43.706;10.780;2023-08-01T04:47:36;24.40;96.70
45115;DHT22;30877;43.706;10.780;2023-08-01T04:50:05;24.50;96.70
45115;DHT22;30877;43.706;10.780;2023-08-01T04:52:33;24.50;96.70
45115;DHT22;30877;43.706;10.780;2023-08-01T04:55:01;24.60;96.70
45115;DHT22;30877;43.706;10.780;2023-08-01T04:57:31;24.60;96.70
45115;DHT22;30877;43.706;10.780;2023-08-01T04:59:59;24.60;96.70
45115;DHT22;30877;43.706;10.780;2023-08-01T05:02:27;24.60;96.70
45115;DHT22;30877;43.706;10.780;2023-08-01T05:04:57;24.60;96.70
45115;DHT22;30877;43.706;10.780;2023-08-01T05:07:25;24.60;96.70
45115;DHT22;30877;43.706;10.780;2023-08-01T05:09:53;24.60;96.70
45115;DHT22;30877;43.706;10.780;2023-08-01T05:12:21;24.60;96.70
45115;DHT22;30877;43.706;10.780;2023-08-01T05:14:49;24.50;96.70
45115;DHT22;30877;43.706;10.780;2023-08-01T05:17:18;24.50;96.70
45115;DHT22;30877;43.706;10.780;2023-08-01T05:19:46;24.60;96.70
45115;DHT22;30877;43.706;10.780;2023-08-01T05:22:16;24.60;96.70
45115;DHT22;30877;43.706;10.780;2023-08-01T05:24:45;24.70;96.70
45115;DHT22;30877;43.706;10.780;2023-08-01T05:27:13;24.70;96.70
45115;DHT22;30877;43.706;10.780;2023-08-01T05:29:42;24.70;96.70
45115;DHT22;30877;43.706;10.780;2023-08-01T05:32:11;24.70;96.70
45115;DHT22;30877;43.706;10.780;2023-08-01T05:34:39;24.80;96.70
45115;DHT22;30877;43.706;10.780;2023-08-01T05:37:08;24.90;96.70
45115;DHT22;30877;43.706;10.780;2023-08-01T05:39:38;24.90;96.70
45115;DHT22;30877;43.706;10.780;2023-08-01T05:42:07;25.00;96.70
45115;DHT22;30877;43.706;10.780;2023-08-01T05:44:36;25.00;96.70
45115;DHT22;30877;43.706;10.780;2023-08-01T05:47:05;25.00;96.70
45115;DHT22;30877;43.706;10.780;2023-08-01T05:49:33;25.10;96.70
45115;DHT22;30877;43.706;10.780;2023-08-01T05:52:02;25.10;96.70
45115;DHT22;30877;43.706;10.780;2023-08-01T05:54:30;25.20;96.70
45115;DHT22;30877;43.706;10.780;2023-08-01T05:57:00;25.20;96.70
45115;DHT22;30877;43.706;10.780;2023-08-01T05:59:29;25.30;96.70
45115;DHT22;30877;43.706;10.780;2023-08-01T06:01:57;25.30;96.70
45115;DHT22;30877;43.706;10.780;2023-08-01T06:04:26;25.30;96.70
45115;DHT22;30877;43.706;10.780;2023-08-01T06:06:55;25.30;96.70
45115;DHT22;30877;43.706;10.780;2023-08-01T06:09:24;25.40;96.70
45115;DHT22;30877;43.706;10.780;2023-08-01T06:11:52;25.50;96.70
45115;DHT22;30877;43.706;10.780;2023-08-01T06:14:22;25.60;96.70
45115;DHT22;30877;43.706;10.780;2023-08-01T06:16:51;25.70;96.70
45115;DHT22;30877;43.706;10.780;2023-08-01T06:19:19;25.80;96.70
45115;DHT22;30877;43.706;10.780;2023-08-01T06:21:48;25.80;96.70
45115;DHT22;30877;43.706;10.780;2023-08-01T06:24:16;25.80;96.70
45115;DHT22;30877;43.706;10.780;2023-08-01T06:26:44;25.70;96.70
45115;DHT22;30877;43.706;10.780;2023-08-01T06:29:13;25.90;96.70
45115;DHT22;30877;43.706;10.780;2023-08-01T06:31:42;26.00;96.70
45115;DHT22;30877;43.706;10.780;2023-08-01T06:34:11;26.00;96.70
45115;DHT22;30877;43.706;10.780;2023-08-01T06:36:39;26.10;96.70
45115;DHT22;30877;43.706;10.780;2023-08-01T06:39:08;26.10;96.70
45115;DHT22;30877;43.706;10.780;2023-08-01T06:41:36;26.20;96.70
45115;DHT22;30877;43.706;10.780;2023-08-01T06:44:05;26.20;96.70
45115;DHT22;30877;43.706;10.780;2023-08-01T06:46:33;26.20;96.70
45115;DHT22;30877;43.706;10.780;2023-08-01T06:49:03;26.20;96.70
45115;DHT22;30877;43.706;10.780;2023-08-01T06:51:31;26.30;96.70
45115;DHT22;30877;43.706;10.780;2023-08-01T06:54:00;26.40;96.70
45115;DHT22;30877;43.706;10.780;2023-08-01T06:56:28;26.50;96.70
45115;DHT22;30877;43.706;10.780;2023-08-01T06:59:00;26.50;96.70
45115;DHT22;30877;43.706;10.780;2023-08-01T07:01:35;26.30;96.70
45115;DHT22;30877;43.706;10.780;2023-08-01T07:04:10;26.10;96.70
45115;DHT22;30877;43.706;10.780;2023-08-01T07:06:38;26.10;96.70
45115;DHT22;30877;43.706;10.780;2023-08-01T07:09:07;26.30;96.70
45115;DHT22;30877;43.706;10.780;2023-08-01T07:11:36;26.50;96.70
45115;DHT22;30877;43.706;10.780;2023-08-01T07:14:04;26.60;96.70
45115;DHT22;30877;43.706;10.780;2023-08-01T07:16:33;26.70;96.70
45115;DHT22;30877;43.706;10.780;2023-08-01T07:19:01;26.60;96.70
45115;DHT22;30877;43.706;10.780;2023-08-01T07:21:31;26.70;96.70
45115;DHT22;30877;43.706;10.780;2023-08-01T07:24:00;26.80;96.70
45115;DHT22;30877;43.706;10.780;2023-08-01T07:26:28;26.80;96.70
45115;DHT22;30877;43.706;10.780;2023-08-01T07:28:58;26.80;96.70
45115;DHT22;30877;43.706;10.780;2023-08-01T07:31:26;27.00;96.70
45115;DHT22;30877;43.706;10.780;2023-08-01T07:33:54;27.20;96.70
45115;DHT22;30877;43.706;10.780;2023-08-01T07:36:23;27.30;96.70
45115;DHT22;30877;43.706;10.780;2023-08-01T07:38:53;27.30;96.70
45115;DHT22;30877;43.706;10.780;2023-08-01T07:41:26;27.20;96.70
45115;DHT22;30877;43.706;10.780;2023-08-01T07:43:55;27.10;96.70
45115;DHT22;30877;43.706;10.780;2023-08-01T07:46:23;27.00;96.70
45115;DHT22;30877;43.706;10.780;2023-08-01T07:48:51;26.90;96.70
45115;DHT22;30877;43.706;10.780;2023-08-01T07:51:22;26.90;96.70
45115;DHT22;30877;43.706;10.780;2023-08-01T07:53:55;27.00;96.70
45115;DHT22;30877;43.706;10.780;2023-08-01T07:56:23;27.10;96.70
45115;DHT22;30877;43.706;10.780;2023-08-01T07:58:52;27.10;96.70
45115;DHT22;30877;43.706;10.780;2023-08-01T08:01:20;27.10;96.70
45115;DHT22;30877;43.706;10.780;2023-08-01T08:03:48;27.20;96.70
45115;DHT22;30877;43.706;10.780;2023-08-01T08:06:17;27.30;96.70
45115;DHT22;30877;43.706;10.780;2023-08-01T08:08:45;27.40;96.70
45115;DHT22;30877;43.706;10.780;2023-08-01T08:11:20;27.50;96.70
45115;DHT22;30877;43.706;10.780;2023-08-01T08:13:48;27.50;96.70
45115;DHT22;30877;43.706;10.780;2023-08-01T08:16:16;27.50;96.70
45115;DHT22;30877;43.706;10.780;2023-08-01T08:18:44;27.50;96.70
45115;DHT22;30877;43.706;10.780;2023-08-01T08:21:12;27.60;96.70
45115;DHT22;30877;43.706;10.780;2023-08-01T08:23:41;27.60;96.70
45115;DHT22;30877;43.706;10.780;2023-08-01T08:26:09;27.60;96.70
45115;DHT22;30877;43.706;10.780;2023-08-01T08:28:38;27.50;96.70
45115;DHT22;30877;43.706;10.780;2023-08-01T08:31:08;27.50;96.70
45115;DHT22;30877;43.706;10.780;2023-08-01T08:33:36;27.50;96.70
45115;DHT22;30877;43.706;10.780;2023-08-01T08:36:04;27.60;96.70
45115;DHT22;30877;43.706;10.780;2023-08-01T08:38:32;27.60;96.70
45115;DHT22;30877;43.706;10.780;2023-08-01T08:41:07;27.50;96.70
45115;DHT22;30877;43.706;10.780;2023-08-01T08:43:38;27.60;96.70
45115;DHT22;30877;43.706;10.780;2023-08-01T08:46:08;27.80;96.70
45115;DHT22;30877;43.706;10.780;2023-08-01T08:48:37;27.90;96.70
45115;DHT22;30877;43.706;10.780;2023-08-01T08:51:08;27.80;96.70
45115;DHT22;30877;43.706;10.780;2023-08-01T08:53:40;27.70;96.70
45115;DHT22;30877;43.706;10.780;2023-08-01T08:56:11;27.70;96.70
45115;DHT22;30877;43.706;10.780;2023-08-01T08:58:41;27.90;96.70
45115;DHT22;30877;43.706;10.780;2023-08-01T09:01:09;28.00;96.70
45115;DHT22;30877;43.706;10.780;2023-08-01T09:03:38;28.10;96.70
45115;DHT22;30877;43.706;10.780;2023-08-01T09:06:09;28.20;96.70
45115;DHT22;30877;43.706;10.780;2023-08-01T09:08:40;28.20;96.70
45115;DHT22;30877;43.706;10.780;2023-08-01T09:11:12;28.30;96.70
45115;DHT22;30877;43.706;10.780;2023-08-01T09:13:41;28.40;96.70
45115;DHT22;30877;43.706;10.780;2023-08-01T09:16:10;28.40;96.70
45115;DHT22;30877;43.706;10.780;2023-08-01T09:18:48;28.40;96.70
45115;DHT22;30877;43.706;10.780;2023-08-01T09:21:18;28.30;96.70
45115;DHT22;30877;43.706;10.780;2023-08-01T09:23:47;28.30;96.70
45115;DHT22;30877;43.706;10.780;2023-08-01T09:26:15;28.40;96.70
45115;DHT22;30877;43.706;10.780;2023-08-01T09:28:55;28.60;96.70
45115;DHT22;30877;43.706;10.780;2023-08-01T09:31:26;28.70;96.70
45115;DHT22;30877;43.706;10.780;2023-08-01T09:33:58;28.70;96.70
45115;DHT22;30877;43.706;10.780;2023-08-01T09:36:27;28.80;96.70
45115;DHT22;30877;43.706;10.780;2023-08-01T09:38:58;28.80;96.70
45115;DHT22;30877;43.706;10.780;2023-08-01T09:41:28;28.80;96.70
45115;DHT22;30877;43.706;10.780;2023-08-01T09:43:58;28.60;96.70
45115;DHT22;30877;43.706;10.780;2023-08-01T09:46:26;28.50;96.70
45115;DHT22;30877;43.706;10.780;2023-08-01T09:48:55;28.60;96.70
45115;DHT22;30877;43.706;10.780;2023-08-01T09:51:23;28.90;96.70
45115;DHT22;30877;43.706;10.780;2023-08-01T09:53:53;29.00;96.70
45115;DHT22;30877;43.706;10.780;2023-08-01T09:56:22;29.00;96.70
45115;DHT22;30877;43.706;10.780;2023-08-01T09:58:53;29.00;96.70
45115;DHT22;30877;43.706;10.780;2023-08-01T10:01:24;29.00;96.70
45115;DHT22;30877;43.706;10.780;2023-08-01T10:03:53;28.90;96.70
45115;DHT22;30877;43.706;10.780;2023-08-01T10:06:23;29.10;96.70
45115;DHT22;30877;43.706;10.780;2023-08-01T10:08:52;29.20;96.70
45115;DHT22;30877;43.706;10.780;2023-08-01T10:11:22;29.30;96.70
45115;DHT22;30877;43.706;10.780;2023-08-01T10:13:50;29.20;96.70
45115;DHT22;30877;43.706;10.780;2023-08-01T10:16:18;29.30;96.70
45115;DHT22;30877;43.706;10.780;2023-08-01T10:18:49;29.40;96.70
45115;DHT22;30877;43.706;10.780;2023-08-01T10:21:17;29.40;96.70
45115;DHT22;30877;43.706;10.780;2023-08-01T10:23:46;29.50;96.70
45115;DHT22;30877;43.706;10.780;2023-08-01T10:26:16;29.60;96.70
45115;DHT22;30877;43.706;10.780;2023-08-01T10:28:50;29.50;96.70
45115;DHT22;30877;43.706;10.780;2023-08-01T10:31:19;29.70;96.70
45115;DHT22;30877;43.706;10.780;2023-08-01T10:33:51;29.90;96.70
45115;DHT22;30877;43.706;10.780;2023-08-01T10:36:21;30.00;96.70
45115;DHT22;30877;43.706;10.780;2023-08-01T10:38:52;30.20;96.70
45115;DHT22;30877;43.706;10.780;2023-08-01T10:41:25;30.20;96.70
45115;DHT22;30877;43.706;10.780;2023-08-01T10:44:07;30.10;96.70
45115;DHT22;30877;43.706;10.780;2023-08-01T10:46:49;30.10;96.70
45115;DHT22;30877;43.706;10.780;2023-08-01T10:49:20;30.00;96.70
45115;DHT22;30877;43.706;10.780;2023-08-01T10:51:49;29.70;96.70
45115;DHT22;30877;43.706;10.780;2023-08-01T10:54:21;29.80;96.70
45115;DHT22;30877;43.706;10.780;2023-08-01T10:56:53;29.80;96.70
45115;DHT22;30877;43.706;10.780;2023-08-01T10:59:22;29.90;96.70
45115;DHT22;30877;43.706;10.780;2023-08-01T11:01:51;29.90;96.70
45115;DHT22;30877;43.706;10.780;2023-08-01T11:04:23;29.90;96.70
45115;DHT22;30877;43.706;10.780;2023-08-01T11:06:52;29.80;96.70
45115;DHT22;30877;43.706;10.780;2023-08-01T11:09:22;29.90;96.70
45115;DHT22;30877;43.706;10.780;2023-08-01T11:11:52;30.10;96.70
45115;DHT22;30877;43.706;10.780;2023-08-01T11:14:20;30.20;96.70
45115;DHT22;30877;43.706;10.780;2023-08-01T11:16:50;30.30;96.70
45115;DHT22;30877;43.706;10.780;2023-08-01T11:19:22;30.30;96.70
45115;DHT22;30877;43.706;10.780;2023-08-01T11:21:50;30.30;96.70
45115;DHT22;30877;43.706;10.780;2023-08-01T11:24:20;30.20;96.70
45115;DHT22;30877;43.706;10.780;2023-08-01T11:26:49;30.30;96.70
45115;DHT22;30877;43.706;10.780;2023-08-01T11:29:19;30.30;96.70
45115;DHT22;30877;43.706;10.780;2023-08-01T11:31:55;30.40;96.70
45115;DHT22;30877;43.706;10.780;2023-08-01T11:34:26;30.40;96.70
45115;DHT22;30877;43.706;10.780;2023-08-01T11:36:55;30.40;96.70
45115;DHT22;30877;43.706;10.780;2023-08-01T11:39:23;30.20;96.70
45115;DHT22;30877;43.706;10.780;2023-08-01T11:41:51;30.40;96.70
45115;DHT22;30877;43.706;10.780;2023-08-01T11:44:23;30.40;96.70
45115;DHT22;30877;43.706;10.780;2023-08-01T11:46:52;30.40;96.70
45115;DHT22;30877;43.706;10.780;2023-08-01T11:49:20;30.60;96.70
45115;DHT22;30877;43.706;10.780;2023-08-01T11:51:50;30.80;96.70
45115;DHT22;30877;43.706;10.780;2023-08-01T11:54:18;30.90;96.70
45115;DHT22;30877;43.706;10.780;2023-08-01T11:56:47;30.90;96.70
45115;DHT22;30877;43.706;10.780;2023-08-01T11:59:16;30.90;96.70
45115;DHT22;30877;43.706;10.780;2023-08-01T12:01:45;31.10;96.70
45115;DHT22;30877;43.706;10.780;2023-08-01T12:04:24;31.10;96.70
45115;DHT22;30877;43.706;10.780;2023-08-01T12:06:54;31.20;96.70
45115;DHT22;30877;43.706;10.780;2023-08-01T12:09:23;31.10;96.70
45115;DHT22;30877;43.706;10.780;2023-08-01T12:11:58;31.30;96.70
45115;DHT22;30877;43.706;10.780;2023-08-01T12:14:30;31.60;96.70
45115;DHT22;30877;43.706;10.780;2023-08-01T12:16:58;31.70;96.70
45115;DHT22;30877;43.706;10.780;2023-08-01T12:19:26;31.80;96.70
45115;DHT22;30877;43.706;10.780;2023-08-01T12:21:55;31.90;96.70
45115;DHT22;30877;43.706;10.780;2023-08-01T12:24:23;31.90;96.70
45115;DHT22;30877;43.706;10.780;2023-08-01T12:26:52;32.10;96.70
45115;DHT22;30877;43.706;10.780;2023-08-01T12:29:20;31.80;96.70
45115;DHT22;30877;43.706;10.780;2023-08-01T12:31:48;31.60;96.70
45115;DHT22;30877;43.706;10.780;2023-08-01T12:34:16;31.50;96.70
45115;DHT22;30877;43.706;10.780;2023-08-01T12:36:45;31.30;96.70
45115;DHT22;30877;43.706;10.780;2023-08-01T12:39:14;31.50;96.70
45115;DHT22;30877;43.706;10.780;2023-08-01T12:41:42;31.50;96.70
45115;DHT22;30877;43.706;10.780;2023-08-01T12:44:11;31.40;96.70
45115;DHT22;30877;43.706;10.780;2023-08-01T12:46:40;31.50;96.70
45115;DHT22;30877;43.706;10.780;2023-08-01T12:49:08;31.50;96.70
45115;DHT22;30877;43.706;10.780;2023-08-01T12:51:37;31.30;96.70
45115;DHT22;30877;43.706;10.780;2023-08-01T12:54:05;31.10;96.70
45115;DHT22;30877;43.706;10.780;2023-08-01T12:56:35;30.80;96.70
45115;DHT22;30877;43.706;10.780;2023-08-01T12:59:03;31.00;96.70
45115;DHT22;30877;43.706;10.780;2023-08-01T13:01:31;31.00;96.70
45115;DHT22;30877;43.706;10.780;2023-08-01T13:04:00;30.80;96.70
45115;DHT22;30877;43.706;10.780;2023-08-01T13:06:28;30.90;96.70
45115;DHT22;30877;43.706;10.780;2023-08-01T13:08:56;31.10;96.70
45115;DHT22;30877;43.706;10.780;2023-08-01T13:11:24;31.20;96.70
45115;DHT22;30877;43.706;10.780;2023-08-01T13:13:54;31.30;96.70
45115;DHT22;30877;43.706;10.780;2023-08-01T13:16:22;31.40;96.70
45115;DHT22;30877;43.706;10.780;2023-08-01T13:18:50;31.50;96.70
45115;DHT22;30877;43.706;10.780;2023-08-01T13:21:18;31.70;96.70
45115;DHT22;30877;43.706;10.780;2023-08-01T13:23:46;31.40;96.70
45115;DHT22;30877;43.706;10.780;2023-08-01T13:26:14;31.20;96.70
45115;DHT22;30877;43.706;10.780;2023-08-01T13:28:43;31.00;96.70
45115;DHT22;30877;43.706;10.780;2023-08-01T13:31:12;30.80;96.70
45115;DHT22;30877;43.706;10.780;2023-08-01T13:33:40;31.30;96.70
45115;DHT22;30877;43.706;10.780;2023-08-01T13:36:08;31.70;96.70
45115;DHT22;30877;43.706;10.780;2023-08-01T13:38:37;32.10;96.70
45115;DHT22;30877;43.706;10.780;2023-08-01T13:41:05;32.20;96.70
45115;DHT22;30877;43.706;10.780;2023-08-01T13:43:33;32.30;96.70
45115;DHT22;30877;43.706;10.780;2023-08-01T13:46:01;32.70;96.70
45115;DHT22;30877;43.706;10.780;2023-08-01T13:48:35;32.20;96.70
45115;DHT22;30877;43.706;10.780;2023-08-01T13:51:03;31.90;96.70
45115;DHT22;30877;43.706;10.780;2023-08-01T13:53:31;31.50;96.70
45115;DHT22;30877;43.706;10.780;2023-08-01T13:56:00;31.00;96.70
45115;DHT22;30877;43.706;10.780;2023-08-01T13:58:28;30.90;96.70
45115;DHT22;30877;43.706;10.780;2023-08-01T14:01:02;30.80;96.70
45115;DHT22;30877;43.706;10.780;2023-08-01T14:03:30;30.70;96.70
45115;DHT22;30877;43.706;10.780;2023-08-01T14:06:05;30.70;96.70
45115;DHT22;30877;43.706;10.780;2023-08-01T14:08:34;30.50;96.70
45115;DHT22;30877;43.706;10.780;2023-08-01T14:11:03;30.30;96.70
45115;DHT22;30877;43.706;10.780;2023-08-01T14:13:32;30.40;96.70
45115;DHT22;30877;43.706;10.780;2023-08-01T14:16:01;30.20;96.70
45115;DHT22;30877;43.706;10.780;2023-08-01T14:18:29;30.30;96.70
45115;DHT22;30877;43.706;10.780;2023-08-01T14:20:57;30.50;96.70
45115;DHT22;30877;43.706;10.780;2023-08-01T14:23:28;30.50;96.70
45115;DHT22;30877;43.706;10.780;2023-08-01T14:25:58;30.40;96.70
45115;DHT22;30877;43.706;10.780;2023-08-01T14:28:26;30.40;96.70
45115;DHT22;30877;43.706;10.780;2023-08-01T14:30:54;30.40;96.70
45115;DHT22;30877;43.706;10.780;2023-08-01T14:33:22;30.30;96.70
45115;DHT22;30877;43.706;10.780;2023-08-01T14:35:50;30.30;96.70
45115;DHT22;30877;43.706;10.780;2023-08-01T14:38:18;30.70;96.70
45115;DHT22;30877;43.706;10.780;2023-08-01T14:40:48;31.30;96.70
45115;DHT22;30877;43.706;10.780;2023-08-01T14:43:35;31.50;96.70
45115;DHT22;30877;43.706;10.780;2023-08-01T14:46:03;31.30;96.70
45115;DHT22;30877;43.706;10.780;2023-08-01T14:48:31;31.80;96.70
45115;DHT22;30877;43.706;10.780;2023-08-01T14:51:00;31.90;96.70
45115;DHT22;30877;43.706;10.780;2023-08-01T14:53:28;32.30;96.70
45115;DHT22;30877;43.706;10.780;2023-08-01T14:55:58;32.70;96.70
45115;DHT22;30877;43.706;10.780;2023-08-01T14:58:27;32.50;96.70
45115;DHT22;30877;43.706;10.780;2023-08-01T15:00:55;32.50;96.70
45115;DHT22;30877;43.706;10.780;2023-08-01T15:03:24;32.10;96.70
45115;DHT22;30877;43.706;10.780;2023-08-01T15:05:52;31.70;96.70
45115;DHT22;30877;43.706;10.780;2023-08-01T15:08:20;31.80;96.70
45115;DHT22;30877;43.706;10.780;2023-08-01T15:10:48;32.30;96.70
45115;DHT22;30877;43.706;10.780;2023-08-01T15:13:17;32.80;96.70
45115;DHT22;30877;43.706;10.780;2023-08-01T15:15:46;33.30;96.70
45115;DHT22;30877;43.706;10.780;2023-08-01T15:18:14;33.40;96.70
45115;DHT22;30877;43.706;10.780;2023-08-01T15:20:42;32.70;96.70
45115;DHT22;30877;43.706;10.780;2023-08-01T15:23:10;32.30;96.70
45115;DHT22;30877;43.706;10.780;2023-08-01T15:25:38;32.30;96.70
45115;DHT22;30877;43.706;10.780;2023-08-01T15:28:07;32.80;96.70